createdAt,value
2023-01-30T00:01:40.047Z,6.05
2023-01-30T00:04:06.696Z,5.98
2023-01-30T00:06:33.347Z,5.86
2023-01-30T00:08:59.976Z,5.83
2023-01-30T00:11:26.599Z,5.91
2023-01-30T00:13:53.303Z,6.02
2023-01-30T00:16:19.980Z,5.94
2023-01-30T00:18:46.638Z,6.01
2023-01-30T00:21:14.131Z,6.09
2023-01-30T00:23:40.808Z,5.91
2023-01-30T00:26:07.618Z,6.06
2023-01-30T00:28:34.251Z,6.03
2023-01-30T00:31:01.004Z,6.20
2023-01-30T00:33:27.894Z,6.33
2023-01-30T00:35:56.304Z,6.39
2023-01-30T00:38:23.187Z,6.29
2023-01-30T00:40:49.891Z,6.25
2023-01-30T00:43:17.829Z,6.25
2023-01-30T00:45:44.780Z,6.27
2023-01-30T00:48:11.427Z,6.18
2023-01-30T00:50:38.051Z,6.23
2023-01-30T00:53:04.941Z,6.28
2023-01-30T00:55:31.701Z,6.38
2023-01-30T00:57:58.304Z,6.35
2023-01-30T01:00:25.045Z,6.45
2023-01-30T01:02:51.745Z,6.02
2023-01-30T01:05:18.749Z,5.96
2023-01-30T01:07:45.573Z,5.89
2023-01-30T01:10:12.163Z,6.07
2023-01-30T01:12:38.971Z,5.93
2023-01-30T01:15:06.116Z,5.91
2023-01-30T01:17:32.947Z,5.75
2023-01-30T01:19:59.649Z,5.89
2023-01-30T01:22:26.280Z,5.85
2023-01-30T01:24:52.894Z,5.96
2023-01-30T01:27:19.623Z,6.09
2023-01-30T01:29:46.423Z,6.19
2023-01-30T01:32:13.132Z,6.31
2023-01-30T01:34:39.808Z,6.43
2023-01-30T01:37:06.493Z,6.43
2023-01-30T01:39:33.128Z,6.40
2023-01-30T01:41:59.766Z,6.46
2023-01-30T01:44:26.442Z,6.47
2023-01-30T01:46:57.455Z,6.45
2023-01-30T01:49:26.649Z,6.42
2023-01-30T01:52:01.931Z,6.35
2023-01-30T01:54:37.816Z,6.44
2023-01-30T01:57:06.840Z,6.29
2023-01-30T01:59:37.792Z,6.26
2023-01-30T02:02:07.707Z,6.17
2023-01-30T02:04:34.530Z,6.30
2023-01-30T02:07:01.279Z,6.16
2023-01-30T02:09:28.047Z,6.32
2023-01-30T02:11:56.321Z,6.27
2023-01-30T02:14:23.002Z,6.34
2023-01-30T02:16:49.654Z,6.25
2023-01-30T02:19:25.853Z,6.29
2023-01-30T02:22:01.588Z,6.36
2023-01-30T02:24:45.129Z,6.42
2023-01-30T02:27:30.584Z,6.48
2023-01-30T02:30:43.031Z,6.31
2023-01-30T02:33:21.339Z,6.14
2023-01-30T02:36:00.077Z,6.00
2023-01-30T02:38:33.688Z,6.01
2023-01-30T02:41:09.540Z,5.83
2023-01-30T02:44:05.606Z,5.89
2023-01-30T02:46:33.175Z,5.99
2023-01-30T02:49:09.513Z,5.92
2023-01-30T02:51:37.125Z,6.03
2023-01-30T02:54:06.062Z,6.02
2023-01-30T02:56:48.663Z,5.91
2023-01-30T02:59:17.005Z,5.86
2023-01-30T03:02:15.795Z,5.81
2023-01-30T03:04:58.376Z,5.69
2023-01-30T03:07:48.212Z,5.51
2023-01-30T03:10:17.218Z,5.37
2023-01-30T03:12:51.427Z,5.35
2023-01-30T03:15:27.976Z,5.28
2023-01-30T03:17:54.590Z,5.21
2023-01-30T03:20:21.325Z,4.98
2023-01-30T03:22:47.926Z,5.19
2023-01-30T03:25:20.059Z,5.19
2023-01-30T03:27:46.805Z,5.33
2023-01-30T03:30:13.744Z,5.47
2023-01-30T03:32:40.411Z,5.70
2023-01-30T03:35:07.271Z,5.72
2023-01-30T03:37:33.942Z,5.73
2023-01-30T03:40:00.603Z,5.93
2023-01-30T03:42:27.266Z,5.98
2023-01-30T03:44:53.908Z,5.84
2023-01-30T03:47:20.527Z,5.89
2023-01-30T03:49:47.192Z,5.66
2023-01-30T03:52:13.810Z,5.56
2023-01-30T03:54:40.429Z,5.63
2023-01-30T03:57:07.070Z,5.48
2023-01-30T03:59:33.739Z,5.53
2023-01-30T04:02:00.422Z,5.55
2023-01-30T04:04:27.081Z,5.57
2023-01-30T04:06:53.762Z,5.81
2023-01-30T04:09:20.635Z,5.70
2023-01-30T04:11:48.776Z,5.71
2023-01-30T04:14:15.384Z,5.88
2023-01-30T04:16:42.369Z,5.92
2023-01-30T04:19:09.028Z,6.07
2023-01-30T04:21:35.703Z,5.96
2023-01-30T04:24:02.408Z,6.18
2023-01-30T04:26:29.148Z,6.03
2023-01-30T04:28:55.828Z,6.01
2023-01-30T04:31:22.512Z,6.24
2023-01-30T04:33:49.216Z,6.28
2023-01-30T04:36:15.864Z,6.41
2023-01-30T04:38:42.539Z,6.39
2023-01-30T04:41:09.198Z,6.37
2023-01-30T04:43:36.063Z,6.15
2023-01-30T04:46:02.769Z,6.14
2023-01-30T04:48:29.590Z,6.02
2023-01-30T04:50:56.311Z,6.10
2023-01-30T04:53:23.337Z,6.16
2023-01-30T04:55:49.990Z,6.25
2023-01-30T04:58:17.064Z,6.11
2023-01-30T05:00:43.760Z,5.71
2023-01-30T05:03:10.417Z,5.47
2023-01-30T05:05:37.133Z,5.46
2023-01-30T05:08:03.952Z,5.22
2023-01-30T05:10:30.608Z,5.16
2023-01-30T05:12:57.294Z,5.07
2023-01-30T05:15:23.987Z,5.12
2023-01-30T05:17:50.775Z,4.96
2023-01-30T05:20:17.558Z,4.93
2023-01-30T05:22:44.206Z,4.86
2023-01-30T05:25:10.813Z,4.98
2023-01-30T05:27:37.481Z,5.31
2023-01-30T05:30:04.431Z,5.49
2023-01-30T05:32:31.193Z,5.49
2023-01-30T05:34:57.817Z,5.63
2023-01-30T05:37:24.596Z,5.71
2023-01-30T05:39:51.538Z,5.35
2023-01-30T05:42:18.188Z,5.33
2023-01-30T05:44:44.867Z,5.23
2023-01-30T05:47:11.543Z,5.32
2023-01-30T05:49:38.238Z,5.31
2023-01-30T05:52:05.201Z,5.34
2023-01-30T05:54:31.834Z,5.41
2023-01-30T05:56:58.509Z,5.36
2023-01-30T05:59:25.240Z,5.22
2023-01-30T06:01:52.113Z,5.04
2023-01-30T06:04:18.723Z,5.09
2023-01-30T06:06:45.496Z,5.11
2023-01-30T06:09:12.151Z,5.25
2023-01-30T06:11:38.887Z,5.25
2023-01-30T06:14:05.569Z,5.14
2023-01-30T06:16:32.236Z,5.30
2023-01-30T06:18:59.179Z,5.35
2023-01-30T06:21:25.990Z,5.16
2023-01-30T06:23:52.644Z,5.15
2023-01-30T06:26:19.466Z,5.11
2023-01-30T06:28:46.104Z,5.39
2023-01-30T06:31:12.822Z,5.65
2023-01-30T06:33:39.572Z,5.56
2023-01-30T06:36:06.528Z,5.83
2023-01-30T06:38:33.178Z,5.70
2023-01-30T06:40:59.923Z,5.61
2023-01-30T06:43:26.583Z,5.47
2023-01-30T06:45:53.458Z,5.45
2023-01-30T06:48:20.203Z,5.70
2023-01-30T06:50:47.131Z,5.81
2023-01-30T06:53:13.761Z,5.87
2023-01-30T06:55:40.521Z,6.01
2023-01-30T06:58:08.616Z,5.97
2023-01-30T07:00:35.526Z,5.56
2023-01-30T07:03:02.172Z,5.62
2023-01-30T07:05:28.975Z,5.74
2023-01-30T07:07:55.707Z,5.73
2023-01-30T07:10:22.401Z,5.54
2023-01-30T07:12:49.169Z,5.77
2023-01-30T07:15:16.188Z,5.96
2023-01-30T07:17:43.227Z,5.87
2023-01-30T07:20:10.726Z,5.99
2023-01-30T07:22:37.558Z,6.07
2023-01-30T07:25:04.820Z,5.92
2023-01-30T07:27:33.957Z,5.98
2023-01-30T07:30:00.697Z,5.71
2023-01-30T07:32:27.590Z,5.77
2023-01-30T07:34:54.255Z,5.82
2023-01-30T07:37:20.881Z,5.92
2023-01-30T07:39:47.523Z,5.64
2023-01-30T07:42:14.327Z,5.30
2023-01-30T07:44:41.396Z,5.48
2023-01-30T07:47:08.202Z,5.59
2023-01-30T07:49:34.900Z,5.63
2023-01-30T07:52:01.609Z,5.83
2023-01-30T07:54:28.230Z,5.82
2023-01-30T07:56:55.030Z,5.86
2023-01-30T07:59:21.684Z,5.62
2023-01-30T08:01:48.333Z,5.65
2023-01-30T08:04:15.032Z,5.35
2023-01-30T08:06:41.821Z,5.70
2023-01-30T08:09:08.682Z,5.38
2023-01-30T08:11:35.440Z,5.21
2023-01-30T08:14:02.485Z,5.16
2023-01-30T08:16:29.210Z,5.18
2023-01-30T08:18:55.872Z,5.40
2023-01-30T08:21:22.814Z,5.60
2023-01-30T08:23:49.476Z,5.92
2023-01-30T08:26:16.183Z,6.15
2023-01-30T08:28:42.872Z,6.33
2023-01-30T08:31:13.218Z,6.25
2023-01-30T08:33:42.270Z,6.30
2023-01-30T08:36:09.222Z,6.19
2023-01-30T08:38:35.993Z,6.10
2023-01-30T08:41:07.063Z,6.12
2023-01-30T08:43:34.702Z,6.41
2023-01-30T08:46:01.421Z,6.64
2023-01-30T08:48:29.869Z,6.71
2023-01-30T08:50:58.536Z,6.60
2023-01-30T08:53:25.175Z,6.37
2023-01-30T08:55:52.497Z,6.26
2023-01-30T08:58:21.962Z,6.51
2023-01-30T09:00:48.925Z,6.54
2023-01-30T09:03:15.592Z,6.75
2023-01-30T09:05:42.519Z,6.94
2023-01-30T09:08:09.150Z,7.24
2023-01-30T09:10:36.015Z,7.28
2023-01-30T09:13:02.941Z,7.28
2023-01-30T09:15:29.648Z,7.35
2023-01-30T09:17:56.263Z,7.30
2023-01-30T09:20:22.909Z,7.24
2023-01-30T09:22:49.554Z,7.37
2023-01-30T09:25:16.170Z,7.33
2023-01-30T09:27:42.905Z,7.41
2023-01-30T09:30:10.093Z,7.50
2023-01-30T09:32:36.757Z,7.56
2023-01-30T09:35:04.375Z,7.69
2023-01-30T09:37:31.077Z,7.63
2023-01-30T09:39:57.751Z,7.39
2023-01-30T09:42:24.323Z,7.37
2023-01-30T09:45:21.601Z,7.54
2023-01-30T09:48:06.390Z,7.36
2023-01-30T09:51:01.495Z,7.14
2023-01-30T09:53:34.872Z,7.19
2023-01-30T09:56:01.524Z,7.36
2023-01-30T09:58:41.669Z,7.44
2023-01-30T10:01:10.576Z,7.35
2023-01-30T10:03:41.224Z,7.32
2023-01-30T10:06:11.790Z,6.90
2023-01-30T10:08:44.535Z,6.65
2023-01-30T10:11:13.999Z,6.36
2023-01-30T10:14:10.874Z,6.61
2023-01-30T10:17:00.213Z,6.73
2023-01-30T10:19:38.968Z,6.98
2023-01-30T10:22:21.628Z,7.17
2023-01-30T10:25:14.455Z,7.19
2023-01-30T10:27:53.222Z,7.36
2023-01-30T10:30:20.224Z,7.41
2023-01-30T10:32:59.085Z,7.01
2023-01-30T10:35:29.784Z,6.96
2023-01-30T10:38:22.022Z,7.11
2023-01-30T10:40:51.566Z,7.15
2023-01-30T10:43:20.952Z,7.34
2023-01-30T10:46:21.068Z,7.21
2023-01-30T10:49:09.124Z,7.33
2023-01-30T10:52:03.971Z,7.38
2023-01-30T10:54:54.004Z,7.49
2023-01-30T10:57:35.746Z,7.60
2023-01-30T11:00:17.536Z,7.68
2023-01-30T11:02:58.457Z,7.62
2023-01-30T11:05:25.918Z,7.66
2023-01-30T11:07:52.558Z,7.88
2023-01-30T11:10:24.364Z,7.79
2023-01-30T11:12:55.845Z,7.86
2023-01-30T11:15:23.533Z,7.96
2023-01-30T11:17:50.623Z,7.99
2023-01-30T11:20:18.919Z,8.00
2023-01-30T11:23:05.865Z,8.06
2023-01-30T11:25:32.635Z,8.15
2023-01-30T11:28:03.543Z,8.25
2023-01-30T11:30:33.611Z,8.15
2023-01-30T11:33:13.752Z,8.19
2023-01-30T11:35:47.424Z,8.22
2023-01-30T11:38:23.551Z,8.29
2023-01-30T11:40:50.215Z,8.29
2023-01-30T11:43:16.890Z,8.14
2023-01-30T11:45:49.438Z,8.12
2023-01-30T11:48:33.769Z,8.15
2023-01-30T11:51:12.580Z,8.23
2023-01-30T11:53:41.645Z,8.17
2023-01-30T11:56:17.525Z,8.27
2023-01-30T11:58:44.204Z,8.03
2023-01-30T12:01:10.861Z,8.14
2023-01-30T12:03:44.378Z,8.21
2023-01-30T12:06:11.018Z,8.07
2023-01-30T12:08:42.312Z,8.14
2023-01-30T12:11:28.549Z,8.27
2023-01-30T12:14:19.269Z,8.45
2023-01-30T12:16:57.848Z,8.49
2023-01-30T12:20:07.356Z,8.48
2023-01-30T12:22:36.598Z,8.36
2023-01-30T12:25:21.439Z,8.34
2023-01-30T12:28:02.446Z,8.38
2023-01-30T12:30:49.324Z,8.39
2023-01-30T12:33:16.053Z,8.30
2023-01-30T12:35:52.233Z,8.12
2023-01-30T12:38:48.184Z,8.07
2023-01-30T12:41:28.777Z,7.97
2023-01-30T12:44:21.518Z,7.96
2023-01-30T12:46:57.039Z,8.24
2023-01-30T12:49:29.586Z,8.30
2023-01-30T12:52:03.696Z,8.26
2023-01-30T12:55:06.759Z,8.15
2023-01-30T12:58:00.831Z,8.15
2023-01-30T13:00:40.888Z,8.14
2023-01-30T13:03:36.243Z,8.28
2023-01-30T13:06:18.060Z,8.32
2023-01-30T13:08:47.422Z,8.37
2023-01-30T13:11:47.908Z,8.48
2023-01-30T13:14:36.112Z,8.63
2023-01-30T13:17:05.448Z,8.58
2023-01-30T13:19:41.235Z,8.72
2023-01-30T13:22:39.487Z,8.73
2023-01-30T13:25:24.206Z,8.52
2023-01-30T13:27:56.265Z,8.42
2023-01-30T13:30:22.993Z,8.49
2023-01-30T13:32:50.390Z,8.49
2023-01-30T13:35:21.845Z,8.53
2023-01-30T13:37:48.936Z,8.58
2023-01-30T13:40:19.741Z,8.56
2023-01-30T13:42:46.571Z,8.64
2023-01-30T13:45:24.288Z,8.76
2023-01-30T13:48:29.307Z,8.69
2023-01-30T13:51:20.785Z,8.65
2023-01-30T13:53:58.524Z,8.73
2023-01-30T13:56:43.385Z,8.65
2023-01-30T13:59:19.170Z,8.68
2023-01-30T14:02:01.051Z,8.52
2023-01-30T14:04:30.315Z,8.19
2023-01-30T14:07:19.041Z,8.12
2023-01-30T14:09:48.209Z,7.95
2023-01-30T14:12:19.680Z,8.05
2023-01-30T14:15:05.107Z,7.97
2023-01-30T14:17:31.942Z,8.13
2023-01-30T14:20:11.290Z,8.23
2023-01-30T14:22:47.715Z,8.28
2023-01-30T14:25:23.247Z,8.26
2023-01-30T14:27:50.538Z,8.34
2023-01-30T14:30:45.219Z,8.30
2023-01-30T14:33:21.047Z,8.47
2023-01-30T14:35:48.727Z,8.57
2023-01-30T14:38:19.291Z,8.64
2023-01-30T14:40:47.629Z,8.68
2023-01-30T14:43:14.151Z,8.55
2023-01-30T14:45:57.147Z,8.48
2023-01-30T14:48:29.607Z,8.62
2023-01-30T14:51:24.991Z,8.66
2023-01-30T14:54:01.747Z,8.77
2023-01-30T14:56:53.242Z,8.94
2023-01-30T14:59:27.718Z,8.85
2023-01-30T15:01:57.044Z,8.96
2023-01-30T15:04:24.218Z,9.01
2023-01-30T15:06:50.899Z,9.05
2023-01-30T15:09:18.597Z,8.99
2023-01-30T15:11:46.217Z,9.03
2023-01-30T15:14:33.189Z,9.09
2023-01-30T15:17:15.421Z,9.00
2023-01-30T15:20:07.002Z,8.96
2023-01-30T15:23:04.843Z,8.83
2023-01-30T15:25:46.839Z,8.78
2023-01-30T15:28:27.805Z,8.86
2023-01-30T15:31:14.356Z,8.87
2023-01-30T15:33:45.514Z,8.80
2023-01-30T15:36:26.520Z,8.91
2023-01-30T15:39:04.250Z,8.91
2023-01-30T15:41:32.736Z,8.93
2023-01-30T15:44:57.060Z,8.76
2023-01-30T15:47:35.614Z,8.88
2023-01-30T15:50:09.008Z,8.86
2023-01-30T15:52:40.308Z,8.85
2023-01-30T15:55:07.365Z,8.87
2023-01-30T15:57:35.791Z,8.79
2023-01-30T16:00:04.554Z,8.81
2023-01-30T16:02:32.726Z,8.74
2023-01-30T16:05:19.548Z,8.73
2023-01-30T16:07:47.472Z,8.74
2023-01-30T16:10:17.901Z,8.69
2023-01-30T16:12:44.498Z,8.61
2023-01-30T16:15:24.889Z,8.53
2023-01-30T16:17:58.315Z,8.56
2023-01-30T16:20:24.944Z,8.49
2023-01-30T16:22:51.582Z,8.36
2023-01-30T16:25:21.738Z,8.35
2023-01-30T16:27:48.675Z,8.28
2023-01-30T16:30:20.508Z,8.23
2023-01-30T16:32:47.499Z,8.27
2023-01-30T16:35:26.880Z,8.27
2023-01-30T16:37:55.226Z,8.32
2023-01-30T16:40:25.337Z,8.30
2023-01-30T16:42:55.907Z,8.32
2023-01-30T16:45:34.680Z,8.33
2023-01-30T16:48:16.657Z,8.29
2023-01-30T16:50:46.957Z,8.14
2023-01-30T16:53:14.637Z,8.29
2023-01-30T16:55:56.989Z,8.22
2023-01-30T16:58:23.635Z,8.23
2023-01-30T17:00:50.823Z,8.17
2023-01-30T17:03:24.154Z,8.15
2023-01-30T17:05:50.905Z,8.19
2023-01-30T17:08:32.975Z,8.20
2023-01-30T17:11:03.129Z,8.18
2023-01-30T17:13:37.392Z,8.08
2023-01-30T17:16:25.162Z,7.98
2023-01-30T17:18:53.151Z,7.97
2023-01-30T17:21:20.383Z,8.12
2023-01-30T17:23:52.741Z,8.07
2023-01-30T17:26:19.561Z,8.08
2023-01-30T17:28:46.397Z,7.96
2023-01-30T17:31:13.676Z,8.00
2023-01-30T17:33:40.448Z,7.91
2023-01-30T17:36:19.709Z,7.86
2023-01-30T17:38:47.894Z,7.97
2023-01-30T17:41:25.710Z,7.97
2023-01-30T17:43:52.342Z,8.05
2023-01-30T17:46:19.104Z,8.02
2023-01-30T17:48:45.819Z,8.06
2023-01-30T17:51:12.479Z,8.05
2023-01-30T17:53:39.180Z,8.11
2023-01-30T17:56:10.081Z,8.08
2023-01-30T17:58:36.738Z,8.05
2023-01-30T18:01:03.359Z,8.13
2023-01-30T18:03:29.994Z,8.09
2023-01-30T18:05:56.691Z,7.96
2023-01-30T18:08:23.310Z,8.10
2023-01-30T18:10:49.905Z,8.13
2023-01-30T18:13:16.520Z,8.15
2023-01-30T18:15:43.193Z,8.19
2023-01-30T18:18:11.553Z,8.24
2023-01-30T18:20:38.159Z,8.23
2023-01-30T18:23:04.851Z,8.15
2023-01-30T18:25:31.470Z,8.08
2023-01-30T18:27:58.160Z,8.08
2023-01-30T18:30:24.835Z,8.02
2023-01-30T18:32:53.920Z,7.88
2023-01-30T18:35:22.099Z,7.86
2023-01-30T18:37:48.781Z,7.96
2023-01-30T18:40:15.485Z,7.97
2023-01-30T18:42:42.080Z,7.93
2023-01-30T18:45:09.071Z,7.89
2023-01-30T18:47:35.810Z,7.88
2023-01-30T18:50:02.473Z,7.86
2023-01-30T18:52:29.132Z,7.80
2023-01-30T18:54:55.775Z,7.74
2023-01-30T18:57:22.519Z,7.65
2023-01-30T18:59:49.176Z,7.43
2023-01-30T19:02:15.838Z,7.49
2023-01-30T19:04:42.536Z,7.39
2023-01-30T19:07:09.158Z,7.56
2023-01-30T19:09:35.791Z,7.54
2023-01-30T19:12:02.492Z,7.42
2023-01-30T19:14:29.168Z,7.45
2023-01-30T19:16:57.272Z,7.48
2023-01-30T19:19:23.974Z,7.40
2023-01-30T19:21:53.597Z,7.37
2023-01-30T19:24:20.231Z,7.47
2023-01-30T19:26:47.521Z,7.46
2023-01-30T19:29:14.147Z,7.46
2023-01-30T19:31:41.052Z,7.45
2023-01-30T19:34:07.896Z,7.45
2023-01-30T19:36:35.156Z,7.42
2023-01-30T19:39:02.200Z,7.54
2023-01-30T19:41:29.913Z,7.54
2023-01-30T19:43:57.198Z,7.65
2023-01-30T19:46:23.953Z,7.67
2023-01-30T19:48:50.740Z,7.65
2023-01-30T19:51:30.586Z,7.58
2023-01-30T19:53:58.900Z,7.66
2023-01-30T19:56:26.273Z,7.55
2023-01-30T19:58:54.668Z,7.58
2023-01-30T20:01:22.131Z,7.47
2023-01-30T20:03:48.860Z,7.58
2023-01-30T20:06:21.976Z,7.65
2023-01-30T20:08:49.536Z,7.54
2023-01-30T20:11:17.452Z,7.47
2023-01-30T20:13:44.927Z,7.57
2023-01-30T20:16:13.261Z,7.60
2023-01-30T20:18:40.255Z,7.57
2023-01-30T20:21:11.062Z,7.53
2023-01-30T20:23:38.243Z,7.52
2023-01-30T20:26:06.023Z,7.47
2023-01-30T20:28:33.112Z,7.36
2023-01-30T20:31:00.059Z,7.29
2023-01-30T20:33:26.977Z,7.34
2023-01-30T20:35:53.681Z,7.29
2023-01-30T20:38:20.348Z,7.25
2023-01-30T20:40:46.999Z,7.31
2023-01-30T20:43:13.749Z,7.24
2023-01-30T20:45:40.461Z,7.30
2023-01-30T20:48:07.171Z,7.28
2023-01-30T20:50:33.827Z,7.26
2023-01-30T20:53:00.480Z,7.22
2023-01-30T20:55:28.149Z,7.22
2023-01-30T20:57:54.781Z,7.23
2023-01-30T21:00:21.542Z,7.23
2023-01-30T21:02:51.244Z,7.10
2023-01-30T21:05:18.058Z,7.00
2023-01-30T21:07:44.870Z,6.91
2023-01-30T21:10:11.526Z,7.08
2023-01-30T21:12:38.214Z,7.01
2023-01-30T21:15:05.178Z,7.00
2023-01-30T21:17:31.883Z,7.07
2023-01-30T21:19:58.493Z,7.10
2023-01-30T21:22:25.132Z,7.05
2023-01-30T21:24:51.874Z,7.06
2023-01-30T21:27:18.493Z,6.87
2023-01-30T21:29:45.155Z,6.91
2023-01-30T21:32:11.820Z,6.91
2023-01-30T21:34:39.071Z,6.88
2023-01-30T21:37:05.915Z,6.83
2023-01-30T21:39:32.752Z,6.79
2023-01-30T21:41:59.609Z,6.73
2023-01-30T21:44:28.278Z,6.67
2023-01-30T21:46:54.932Z,6.64
2023-01-30T21:49:21.626Z,6.51
2023-01-30T21:51:49.321Z,6.39
2023-01-30T21:54:16.822Z,6.45
2023-01-30T21:56:43.532Z,6.49
2023-01-30T21:59:11.208Z,6.49
2023-01-30T22:01:38.079Z,6.42
2023-01-30T22:04:06.310Z,6.40
2023-01-30T22:06:33.140Z,6.45
2023-01-30T22:09:00.584Z,6.43
2023-01-30T22:11:27.455Z,6.19
2023-01-30T22:13:54.746Z,6.29
2023-01-30T22:16:24.169Z,6.17
2023-01-30T22:18:55.305Z,6.14
2023-01-30T22:21:22.937Z,6.25
2023-01-30T22:23:50.419Z,6.18
2023-01-30T22:26:18.210Z,6.06
2023-01-30T22:28:45.108Z,6.02
2023-01-30T22:31:21.628Z,6.07
2023-01-30T22:33:51.138Z,5.96
2023-01-30T22:36:17.876Z,5.98
2023-01-30T22:38:45.359Z,5.93
2023-01-30T22:41:15.144Z,6.04
2023-01-30T22:43:47.207Z,5.93
2023-01-30T22:46:14.356Z,6.07
2023-01-30T22:48:41.622Z,6.13
2023-01-30T22:51:19.259Z,6.16
2023-01-30T22:53:59.237Z,6.02
2023-01-30T22:56:27.548Z,5.87
2023-01-30T22:58:54.144Z,5.90
2023-01-30T23:01:22.470Z,6.05
2023-01-30T23:03:59.090Z,5.97
2023-01-30T23:06:26.407Z,5.98
2023-01-30T23:08:53.658Z,5.78
2023-01-30T23:11:23.280Z,5.77
2023-01-30T23:13:51.330Z,5.88
2023-01-30T23:16:19.463Z,5.92
2023-01-30T23:18:46.217Z,5.87
2023-01-30T23:21:13.607Z,5.90
2023-01-30T23:23:40.293Z,6.04
2023-01-30T23:26:07.184Z,6.04
2023-01-30T23:28:34.398Z,5.96
2023-01-30T23:31:11.515Z,6.06
2023-01-30T23:33:38.281Z,5.96
2023-01-30T23:36:10.286Z,5.97
2023-01-30T23:38:37.682Z,5.95
2023-01-30T23:41:05.134Z,5.97
2023-01-30T23:43:31.883Z,5.87
2023-01-30T23:45:58.593Z,5.94
2023-01-30T23:48:25.257Z,5.91
2023-01-30T23:50:51.916Z,5.80
2023-01-30T23:53:18.621Z,5.77
2023-01-30T23:55:51.962Z,5.79
2023-01-30T23:58:18.602Z,5.82
